ADDS METAR Data INFO
IDs: Format: Raw Decoded Include TAF

Data at: 0857 UTC 16 Jul 2018

METAR for:PASD (Sand Point Arpt, AK, US)
Text:PASD 160756Z AUTO 02004KT 10SM CLR 09/06 A3014 RMK AO2 SLP209 T00940061 PNO $
Temperature: 9.4°C ( 49°F)
Dewpoint: 6.1°C ( 43°F) [RH = 80%]
Pressure (altimeter):30.14 inches Hg (1020.7 mb) [Sea level pressure: 1020.9 mb]
Winds:from the NNE (20 degrees) at 5 MPH (4 knots; 2.1 m/s)
Visibility:10 or more sm (16+ km)
Ceiling:at least 12,000 feet AGL
Clouds:sky clear below 12,000 feet AGL
QC Flag:automated observation with no human augmentation; SOME DATA ABOVE MAY BE INACCURATE!!!"$" is an indication the sensor requires maintenance.
Text:PASD 160456Z AUTO 01009KT 10SM OVC042 12/07 A3010 RMK AO2 SLP196 T01170072 PNO $
Temperature: 11.7°C ( 53°F)
Dewpoint: 7.2°C ( 45°F) [RH = 74%]
Pressure (altimeter):30.10 inches Hg (1019.4 mb) [Sea level pressure: 1019.6 mb]
Winds:from the N (10 degrees) at 10 MPH (9 knots; 4.6 m/s)
Visibility:10 or more sm (16+ km)
Ceiling:4200 feet AGL
Clouds: overcast cloud deck at 4200 feet AGL
QC Flag:automated observation with no human augmentation; SOME DATA ABOVE MAY BE INACCURATE!!!"$" is an indication the sensor requires maintenance.

TAF for:PASD (Sand Point Arpt, AK, US) issued at 0538 UTC 16 Jul 2018
Text:PASD 160538Z 1606/1706 34005KT P6SM SCT020 BKN040
Forecast period:0600 UTC 16 July 2018 to 0600 UTC 17 July 2018
Forecast type:FROM: standard forecast or significant change
Winds:from the NNW (340 degrees) at 6 MPH (5 knots; 2.6 m/s)
Visibility:6 or more sm (10+ km)
Ceiling:4000 feet AGL
Clouds: scattered clouds at 2000 feet AGL, broken clouds at 4000 feet AGL
Text:TEMPO 1606/1609 FEW025 BKN030 AMD LTD TO CLD VIS AND WIND
Forecast period:0600 to 0900 UTC 16 July 2018
Forecast type:TEMPORARY: The following changes expected for less than half the time period
Ceiling:3000 feet AGL
Clouds: few clouds at 2500 feet AGL, broken clouds at 3000 feet AGL